KMCO/MCO METAR and TAF weather

Enter ICAO airport designator
Station Type Date Time Source
KMCO METAR 2020/07/12 03:53 UTC NOAA

KMCO 120353Z 22003KT 10SM FEW110 SCT160 BKN250 24/23 A2992 RMK AO2 SLP131 T02440228


Station Type Date Time Source
KMCO Decoded METAR 2020/07/12 03:53 UTC NOAA

ORLANDO INTERNATIONAL AIRPORT , FL, United States (KMCO) 28-25N 81-20W 29M
Jul 11, 2020 - 11:53 PM EDT / 2020.07.12 0353 UTC
Wind: from the SW (220 degrees) at 3 MPH (3 KT):0
Visibility: 10 mile(s):0
Sky conditions: mostly cloudy
Temperature: 75.9 F (24.4 C)
Dew Point: 73.0 F (22.8 C)
Relative Humidity: 90%
Pressure (altimeter): 29.92 in. Hg (1013 hPa)
ob: KMCO 120353Z 22003KT 10SM FEW110 SCT160 BKN250 24/23 A2992 RMK AO2 SLP131 T02440228
cycle: 4

Station Type Date Time Source
KMCO TAF 2020/07/12 03:54 UTC NOAA

TAF
AMD KMCO 120250Z 1203/1306 22004KT P6SM FEW040 SCT120 OVC250
FM121400 24006KT P6SM SCT030 BKN250
FM121600 26008KT P6SM VCTS SCT035CB
FM122200 22007KT P6SM VCSH SCT040 BKN070
FM130200 VRB04KT P6SM SCT040 SCT120 BKN250

Example: see airport list